Time,TemperatureF,DewpointF,PressureIn,WindDirection,WindDirectionDegrees,WindSpeedMPH,WindSpeedGustMPH,Humidity,HourlyPrecipIn,Conditions,Clouds,dailyrainin,SoftwareType,DateUTC
2013-11-07 08:22:00,33.0,32.0,30.41,NNW,333,0.0,-999.0,98,-99.99,,,-99.99,,2013-11-07 14:22:00,
2013-11-07 08:32:00,33.0,32.0,30.41,NNW,333,0.0,-999.0,98,-99.99,,,-99.99,,2013-11-07 14:32:00,
2013-11-07 08:42:00,33.0,32.0,30.41,NNW,333,0.0,-999.0,98,-99.99,,,-99.99,,2013-11-07 14:42:00,
2013-11-07 08:52:00,37.0,36.0,30.40,SE,130,0.0,-999.0,97,-99.99,,,-99.99,,2013-11-07 14:52:00,
2013-11-07 09:22:00,39.0,37.0,30.41,South,171,1.0,-999.0,93,-99.99,,,-99.99,,2013-11-07 15:22:00,
2013-11-07 09:43:00,40.0,38.0,30.41,SSW,199,0.0,-999.0,91,-99.99,,,-99.99,,2013-11-07 15:43:00,
2013-11-07 09:53:00,43.0,39.0,30.42,South,190,1.0,-999.0,87,-99.99,,,-99.99,,2013-11-07 15:53:00,
2013-11-07 10:23:00,47.0,40.0,30.40,NW,313,2.0,-999.0,76,-99.99,,,-99.99,,2013-11-07 16:23:00,
2013-11-07 10:42:00,48.0,39.0,30.40,NNW,331,1.0,-999.0,72,-99.99,,,-99.99,,2013-11-07 16:42:00,
2013-11-07 10:52:00,48.0,38.0,30.40,West,279,2.0,-999.0,69,-99.99,,,-99.99,,2013-11-07 16:52:00,
2013-11-07 11:12:00,49.0,39.0,30.40,West,277,4.0,-999.0,69,-99.99,,,-99.99,,2013-11-07 17:12:00,
2013-11-07 11:22:00,49.0,39.0,30.40,West,277,4.0,-999.0,69,-99.99,,,-99.99,,2013-11-07 17:22:00,
2013-11-07 11:33:00,49.0,39.0,30.40,West,277,4.0,-999.0,69,-99.99,,,-99.99,,2013-11-07 17:33:00,
2013-11-07 12:52:00,56.0,37.0,30.38,NW,320,2.0,-999.0,49,-99.99,,,-99.99,,2013-11-07 18:52:00,
2013-11-07 13:21:00,57.0,37.0,30.37,NNW,327,3.0,-999.0,47,-99.99,,,-99.99,,2013-11-07 19:21:00,
2013-11-07 13:32:00,57.0,37.0,30.37,NNW,327,3.0,-999.0,47,-99.99,,,-99.99,,2013-11-07 19:32:00,
2013-11-07 13:42:00,57.0,37.0,30.37,NNW,327,3.0,-999.0,47,-99.99,,,-99.99,,2013-11-07 19:42:00,
2013-11-07 13:52:00,57.0,37.0,30.37,NNW,327,3.0,-999.0,47,-99.99,,,-99.99,,2013-11-07 19:52:00,
2013-11-07 15:22:00,58.0,33.0,30.34,NW,311,5.0,-999.0,38,-99.99,,,-99.99,,2013-11-07 21:22:00,
2013-11-07 15:53:00,57.0,33.0,30.31,NNW,335,6.0,-999.0,40,-99.99,,,-99.99,,2013-11-07 21:53:00,
2013-11-07 16:13:00,57.0,34.0,30.32,NNW,336,5.0,-999.0,41,-99.99,,,-99.99,,2013-11-07 22:13:00,
2013-11-07 16:23:00,57.0,34.0,30.32,NNW,336,5.0,-999.0,41,-99.99,,,-99.99,,2013-11-07 22:23:00,
2013-11-07 16:33:00,57.0,34.0,30.32,NNW,336,5.0,-999.0,41,-99.99,,,-99.99,,2013-11-07 22:33:00,
2013-11-07 17:12:00,54.0,34.0,30.32,NW,326,4.0,-999.0,46,-99.99,,,-99.99,,2013-11-07 23:12:00,
2013-11-07 17:22:00,54.0,34.0,30.32,NNW,329,2.0,-999.0,47,-99.99,,,-99.99,,2013-11-07 23:22:00,
2013-11-07 17:43:00,52.0,34.0,30.32,NW,304,2.0,-999.0,50,-99.99,,,-99.99,,2013-11-07 23:43:00,
2013-11-07 17:53:00,51.0,33.0,30.34,NW,311,2.0,-999.0,50,-99.99,,,-99.99,,2013-11-07 23:53:00,
2013-11-07 18:22:00,48.0,34.0,30.35,NW,311,0.0,-999.0,59,-99.99,,,-99.99,,2013-11-08 00:22:00,
2013-11-07 18:42:00,46.0,35.0,30.36,NW,311,0.0,-999.0,65,-99.99,,,-99.99,,2013-11-08 00:42:00,
2013-11-07 18:52:00,45.0,33.0,30.36,NW,311,0.0,-999.0,63,-99.99,,,-99.99,,2013-11-08 00:52:00,
2013-11-07 19:42:00,41.0,33.0,30.37,NW,311,0.0,-999.0,73,-99.99,,,-99.99,,2013-11-08 01:42:00,
2013-11-07 19:52:00,41.0,33.0,30.37,NW,311,0.0,-999.0,73,-99.99,,,-99.99,,2013-11-08 01:52:00,
2013-11-07 20:02:00,41.0,33.0,30.37,NW,311,0.0,-999.0,73,-99.99,,,-99.99,,2013-11-08 02:02:00,